Esquina — 2DOU6 — position and weather

sailwx.info

Track history (hours):
 
Tides and Currents Weather Stations Pressure Air Temp Water Temp Dewpoint Dewpoint Depression Visibility Wind Speed Wind Dir Waves Ship Positions

Esquina

Last reported at 2016-Jun-16 14:33 UTC. Time now 2016-Jun-29 02:09 UTC.
Position N 47°42' W 003°21'.
Warning: this ship's position is 12 days out of date.

Type: Other ship. MMSI: 235080801.

Date/timePositionNaut miles runAvg speedWind from/ knotsBaromVisibWave heightAir tempDewpointWater temp
2016-Jun-16 14:33N 47°42' W 003°21'0 0.4
2016-Jun-16 13:33N 47°42' W 003°20'2 1.6
2016-Jun-16 12:33N 47°43' W 003°22'6 5.7
2016-Jun-16 11:32N 47°37' W 003°20'6 5.9
2016-Jun-16 10:33N 47°32' W 003°17'4 4.1
2016-Jun-16 09:33N 47°36' W 003°18'2 1.9
2016-Jun-16 08:32N 47°37' W 003°20'4 4.1
2016-Jun-16 07:33N 47°41' W 003°22'4 3.5
2016-Jun-16 06:32N 47°45' W 003°21'2 0.1
2016-Jun-15 17:06N 47°43' W 003°21'2 3.4
2016-Jun-15 16:32N 47°45' W 003°21'6 5.9
2016-Jun-15 15:33N 47°39' W 003°19'6 6.1
2016-Jun-15 14:32N 47°35' W 003°12'2 1.6
2016-Jun-15 13:33N 47°34' W 003°14'1 1.4
2016-Jun-15 12:33N 47°35' W 003°16'0 0.2
2016-Jun-15 11:33N 47°35' W 003°16'4 4.0
2016-Jun-15 10:33N 47°36' W 003°10'8 7.7
2016-Jun-15 09:33N 47°39' W 003°20'4 4.4
2016-Jun-15 08:32N 47°44' W 003°22'1 0.1
2016-Jun-14 13:33N 47°43' W 003°21'0 0.0
2016-Jun-14 12:33N 47°43' W 003°21'0 0.0
2016-Jun-14 11:33N 47°43' W 003°21'1 0.9
2016-Jun-14 10:33N 47°42' W 003°21'0 0.3
2016-Jun-14 09:33N 47°42' W 003°20'1 1.3
2016-Jun-14 08:33N 47°43' W 003°22'1 0.0
2016-Jun-13 14:33N 47°42' W 003°22'8 7.7
2016-Jun-13 13:33N 47°36' W 003°14'2 2.3
2016-Jun-13 12:33N 47°34' W 003°12'2 1.9
2016-Jun-13 11:33N 47°36' W 003°10'2 1.9
2016-Jun-13 10:33N 47°34' W 003°12'1010.0
2016-Jun-13 09:32N 47°43' W 003°21'2 2.0
2016-Jun-13 08:33N 47°45' W 003°21'4 4.5
2016-Jun-13 07:33N 47°40' W 003°22'6 6.1
2016-Jun-13 06:33N 47°36' W 003°16'2 1.6
2016-Jun-13 05:33N 47°37' W 003°15'8 8.1
2016-Jun-13 04:33N 47°44' W 003°21'  
2016-Jun-07 16:08N 47°43' W 003°21'2 3.3
2016-Jun-07 15:33N 47°45' W 003°21'4 3.5
2016-Jun-07 14:33N 47°41' W 003°22'9 8.6
2016-Jun-07 13:32N 47°36' W 003°12'2 1.5
2016-Jun-07 12:33N 47°35' W 003°12'2 2.3
2016-Jun-07 11:33N 47°35' W 003°15'3 2.0
2016-Jun-07 10:05N 47°37' W 003°12'0 0.0
2016-Jun-07 09:31N 47°37' W 003°12'1 1.2
2016-Jun-07 08:34N 47°37' W 003°14'1 0.9
2016-Jun-07 07:33N 47°37' W 003°14'3 2.6
2016-Jun-07 06:33N 47°35' W 003°13'2 1.8
2016-Jun-07 05:33N 47°37' W 003°13'8 8.5
2016-Jun-07 04:33N 47°43' W 003°21'0 0.0
2016-Jun-06 14:34N 47°43' W 003°21'  
Track history (hours):
 
Tides and Currents Weather Stations Pressure Air Temp Water Temp Dewpoint Dewpoint Depression Visibility Wind Speed Wind Dir Waves Ship Positions

Esquina

Last reported at 2016-Jun-16 14:33 UTC. Time now 2016-Jun-29 02:09 UTC.
Position N 47°42' W 003°21'.
Warning: this ship's position is 12 days out of date.

Type: Other ship. MMSI: 235080801.

Date/timePositionNaut miles runAvg speedWind from/ knotsBaromVisibWave heightAir tempDewpointWater temp
2016-Jun-16 14:33N 47°42' W 003°21'0 0.4
2016-Jun-16 13:33N 47°42' W 003°20'2 1.6
2016-Jun-16 12:33N 47°43' W 003°22'6 5.7
2016-Jun-16 11:32N 47°37' W 003°20'6 5.9
2016-Jun-16 10:33N 47°32' W 003°17'4 4.1
2016-Jun-16 09:33N 47°36' W 003°18'2 1.9
2016-Jun-16 08:32N 47°37' W 003°20'4 4.1
2016-Jun-16 07:33N 47°41' W 003°22'4 3.5
2016-Jun-16 06:32N 47°45' W 003°21'2 0.1
2016-Jun-15 17:06N 47°43' W 003°21'2 3.4
2016-Jun-15 16:32N 47°45' W 003°21'6 5.9
2016-Jun-15 15:33N 47°39' W 003°19'6 6.1
2016-Jun-15 14:32N 47°35' W 003°12'2 1.6
2016-Jun-15 13:33N 47°34' W 003°14'1 1.4
2016-Jun-15 12:33N 47°35' W 003°16'0 0.2
2016-Jun-15 11:33N 47°35' W 003°16'4 4.0
2016-Jun-15 10:33N 47°36' W 003°10'8 7.7
2016-Jun-15 09:33N 47°39' W 003°20'4 4.4
2016-Jun-15 08:32N 47°44' W 003°22'1 0.1
2016-Jun-14 13:33N 47°43' W 003°21'0 0.0
2016-Jun-14 12:33N 47°43' W 003°21'0 0.0
2016-Jun-14 11:33N 47°43' W 003°21'1 0.9
2016-Jun-14 10:33N 47°42' W 003°21'0 0.3
2016-Jun-14 09:33N 47°42' W 003°20'1 1.3
2016-Jun-14 08:33N 47°43' W 003°22'1 0.0
2016-Jun-13 14:33N 47°42' W 003°22'8 7.7
2016-Jun-13 13:33N 47°36' W 003°14'2 2.3
2016-Jun-13 12:33N 47°34' W 003°12'2 1.9
2016-Jun-13 11:33N 47°36' W 003°10'2 1.9
2016-Jun-13 10:33N 47°34' W 003°12'1010.0
2016-Jun-13 09:32N 47°43' W 003°21'2 2.0
2016-Jun-13 08:33N 47°45' W 003°21'4 4.5
2016-Jun-13 07:33N 47°40' W 003°22'6 6.1
2016-Jun-13 06:33N 47°36' W 003°16'2 1.6
2016-Jun-13 05:33N 47°37' W 003°15'8 8.1
2016-Jun-13 04:33N 47°44' W 003°21'  
2016-Jun-07 16:08N 47°43' W 003°21'2 3.3
2016-Jun-07 15:33N 47°45' W 003°21'4 3.5
2016-Jun-07 14:33N 47°41' W 003°22'9 8.6
2016-Jun-07 13:32N 47°36' W 003°12'2 1.5
2016-Jun-07 12:33N 47°35' W 003°12'2 2.3
2016-Jun-07 11:33N 47°35' W 003°15'3 2.0
2016-Jun-07 10:05N 47°37' W 003°12'0 0.0
2016-Jun-07 09:31N 47°37' W 003°12'1 1.2
2016-Jun-07 08:34N 47°37' W 003°14'1 0.9
2016-Jun-07 07:33N 47°37' W 003°14'3 2.6
2016-Jun-07 06:33N 47°35' W 003°13'2 1.8
2016-Jun-07 05:33N 47°37' W 003°13'8 8.5
2016-Jun-07 04:33N 47°43' W 003°21'0 0.0
2016-Jun-06 14:34N 47°43' W 003°21'  

Dump ship's entire track history